Close Search

Base
°C
Summit
°C

WEATHER AT A GLANCE

Image Slideshow

RMR Village

Revelstoke Mountain Resort -  RMR Village Webcam

Top of The Stoke

Revelstoke Mountain Resort -  Top of The Stoke Webcam

Top of Stellar

Revelstoke Mountain Resort -  Top of Stellar Webcam

Mackenzie Outpost

Revelstoke Mountain Resort -  Mackenzie Outpost Webcam

Ripper

Revelstoke Mountain Resort -  Ripper Webcam
Base
°C
Summit
°C
Wind (Summit)
km/h

Today's Forecast

Subpeak Weather

Time Avg. Air Temp Dew Point Avg. Rel Humidity Avg. 2 Min Wind Speed Max Gust Velocity MGV Time MGV Direction Avg. Spot Wind Velocity
2026-05-06 04:05:006° C-5° C43%30 km/h32 km/h04:03:00W31 km/h
03:05:006° C-6° C41%25 km/h27 km/h03:03:00W25 km/h
02:05:007° C-6° C39%23 km/h25 km/h02:04:00W23 km/h
01:05:006° C-7° C38%19 km/h20 km/h01:01:00W19 km/h
00:05:007° C-6° C39%14 km/h16 km/h00:02:00NW14 km/h
23:05:006° C-8° C37%8 km/h9 km/h23:05:00W7 km/h
22:05:006° C-8° C38%5 km/h8 km/h22:01:00N5 km/h
21:05:005° C-8° C38%3 km/h8 km/h21:03:00NW4 km/h
20:05:006° C-8° C38%12 km/h16 km/h20:02:00NE11 km/h
19:05:005° C-8° C38%6 km/h21 km/h19:02:00SW6 km/h
18:05:006° C-8° C37%6 km/h16 km/h18:01:00N7 km/h
17:05:006° C-7° C37%9 km/h22 km/h17:04:00N8 km/h
16:05:006° C-7° C38%9 km/h18 km/h16:05:00NW7 km/h
15:05:005° C-7° C41%7 km/h10 km/h15:02:00NW6 km/h
14:05:005° C-6° C44%1 km/h5 km/h14:01:00NE2 km/h
13:05:004° C-6° C47%10 km/h15 km/h13:05:00NE10 km/h
12:05:004° C-7° C45%1 km/h3 km/h12:02:00NW1 km/h
11:05:003° C-7° C48%1 km/h6 km/h11:01:00NW1 km/h
10:05:002° C-8° C48%13 km/h15 km/h10:01:00NE12 km/h
09:05:001° C-8° C49%23 km/h26 km/h09:01:00NE23 km/h
08:05:001° C-9° C50%29 km/h35 km/h08:03:00NE29 km/h
07:05:000° C-8° C54%22 km/h32 km/h07:01:00NE26 km/h
06:05:000° C-8° C52%19 km/h32 km/h06:01:00NE23 km/h
05:05:000° C-8° C53%23 km/h34 km/h05:05:00NE20 km/h

Time Avg. Air Temp Dew Point Avg. Rel Humidity Avg. 2 Min Wind Speed Max Gust Velocity MGV Time MGV Direction Avg. Spot Wind Velocity
2026-05-06 04:05:006° C-5° C43%30 km/h32 km/h04:03:00W31 km/h
04:00:006° C-6° C43%30 km/h31 km/h03:58:00W29 km/h
03:55:006° C-6° C43%28 km/h31 km/h03:54:00W28 km/h
03:50:006° C-6° C43%29 km/h30 km/h03:49:00W28 km/h
03:45:006° C-6° C43%25 km/h30 km/h03:42:00W26 km/h
03:40:006° C-5° C43%26 km/h30 km/h03:40:00W27 km/h
03:35:006° C-5° C43%28 km/h29 km/h03:35:00W28 km/h
03:30:006° C-5° C43%26 km/h31 km/h03:28:00W27 km/h
03:25:006° C-5° C42%27 km/h30 km/h03:22:00W28 km/h
03:20:006° C-6° C42%27 km/h29 km/h03:20:00W27 km/h
03:15:006° C-6° C42%28 km/h31 km/h03:14:00W29 km/h
03:10:006° C-6° C42%29 km/h32 km/h03:09:00W27 km/h
03:05:006° C-6° C41%25 km/h27 km/h03:03:00W25 km/h

We value your privacy
We use cookies to enhance your browsing experience, serve personalized ads or content, and analyze our traffic. By clicking "Allow Cookies", you consent to our use of cookies. For additional details view our Privacy Policy.
Cookie preferences

You can control how your data is used on our website. Learn more below about the cookies we use by reviewing our Privacy Policy.

Your cookie preferences have been saved.